createdAt,value
2023-04-25T00:01:05.816Z,2.00
2023-04-25T00:03:52.445Z,1.40
2023-04-25T00:06:40.430Z,1.80
2023-04-25T00:09:28.272Z,1.50
2023-04-25T00:12:14.708Z,1.90
2023-04-25T00:15:00.946Z,1.40
2023-04-25T00:17:48.134Z,2.03
2023-04-25T00:20:36.542Z,2.43
2023-04-25T00:23:22.743Z,1.53
2023-04-25T00:26:09.137Z,1.63
2023-04-25T00:28:55.489Z,1.93
2023-04-25T00:31:42.194Z,1.90
2023-04-25T00:34:28.557Z,1.90
2023-04-25T00:37:14.891Z,2.23
2023-04-25T00:40:01.150Z,1.90
2023-04-25T00:42:48.367Z,2.10
2023-04-25T00:45:39.552Z,1.80
2023-04-25T00:48:25.938Z,1.57
2023-04-25T00:51:16.743Z,1.93
2023-04-25T00:54:03.510Z,1.90
2023-04-25T00:56:50.324Z,2.00
2023-04-25T00:59:38.419Z,1.90
2023-04-25T01:02:24.739Z,1.97
2023-04-25T01:05:11.657Z,2.10
2023-04-25T01:07:58.052Z,2.00
2023-04-25T01:10:44.359Z,1.93
2023-04-25T01:13:32.861Z,1.80
2023-04-25T01:16:19.560Z,1.80
2023-04-25T01:19:12.110Z,1.80
2023-04-25T01:21:58.493Z,2.03
2023-04-25T01:24:45.194Z,2.07
2023-04-25T01:27:31.928Z,2.37
2023-04-25T01:30:18.417Z,2.10
2023-04-25T01:33:06.338Z,2.23
2023-04-25T01:35:52.875Z,1.97
2023-04-25T01:38:41.221Z,1.90
2023-04-25T01:41:28.311Z,2.27
2023-04-25T01:44:15.696Z,2.20
2023-04-25T01:47:02.159Z,2.23
2023-04-25T01:49:48.314Z,2.20
2023-04-25T01:52:35.523Z,2.20
2023-04-25T01:55:22.376Z,1.97
2023-04-25T01:58:16.960Z,2.03
2023-04-25T02:01:33.004Z,2.17
2023-04-25T02:04:35.588Z,2.20
2023-04-25T02:07:23.158Z,1.90
2023-04-25T02:10:12.569Z,2.13
2023-04-25T02:13:11.387Z,2.17
2023-04-25T02:16:07.319Z,1.90
2023-04-25T02:18:53.851Z,2.23
2023-04-25T02:21:40.175Z,2.50
2023-04-25T02:24:26.385Z,2.10
2023-04-25T02:27:12.780Z,2.13
2023-04-25T02:29:59.188Z,2.10
2023-04-25T02:32:45.660Z,2.03
2023-04-25T02:35:32.057Z,2.10
2023-04-25T02:38:18.533Z,1.93
2023-04-25T02:41:05.033Z,2.40
2023-04-25T02:43:51.746Z,2.10
2023-04-25T02:46:39.900Z,2.47
2023-04-25T02:49:26.290Z,2.50
2023-04-25T02:52:13.304Z,2.63
2023-04-25T02:54:59.956Z,2.63
2023-04-25T02:57:48.403Z,2.30
2023-04-25T03:00:52.984Z,2.23
2023-04-25T03:03:39.672Z,2.27
2023-04-25T03:06:26.205Z,2.57
2023-04-25T03:09:12.902Z,2.50
2023-04-25T03:11:59.225Z,2.60
2023-04-25T03:14:45.852Z,2.57
2023-04-25T03:17:32.421Z,2.97
2023-04-25T03:20:19.198Z,2.60
2023-04-25T03:23:05.593Z,2.00
2023-04-25T03:25:52.170Z,2.87
2023-04-25T03:28:38.796Z,2.60
2023-04-25T03:31:26.780Z,2.80
2023-04-25T03:34:12.885Z,2.23
2023-04-25T03:36:59.194Z,2.53
2023-04-25T03:39:46.009Z,2.87
2023-04-25T03:42:32.527Z,2.60
2023-04-25T03:45:19.487Z,2.37
2023-04-25T03:48:06.210Z,2.50
2023-04-25T03:50:54.115Z,2.80
2023-04-25T03:53:40.540Z,2.30
2023-04-25T03:56:52.855Z,2.50
2023-04-25T03:59:41.817Z,2.33
2023-04-25T04:02:32.395Z,2.67
2023-04-25T04:05:19.342Z,2.80
2023-04-25T04:08:12.351Z,2.30
2023-04-25T04:11:00.417Z,2.63
2023-04-25T04:13:47.197Z,2.73
2023-04-25T04:16:34.638Z,2.83
2023-04-25T04:19:21.699Z,2.80
2023-04-25T04:22:16.673Z,2.30
2023-04-25T04:25:03.780Z,2.60
2023-04-25T04:28:12.027Z,2.40
2023-04-25T04:31:16.843Z,2.57
2023-04-25T04:34:04.501Z,2.30
2023-04-25T04:36:51.096Z,2.30
2023-04-25T04:39:37.870Z,2.70
2023-04-25T04:42:43.790Z,2.00
2023-04-25T04:45:59.686Z,2.20
2023-04-25T04:49:13.287Z,2.50
2023-04-25T04:52:19.514Z,2.40
2023-04-25T04:55:16.049Z,2.43
2023-04-25T04:58:30.081Z,2.10
2023-04-25T05:01:32.914Z,3.03
2023-04-25T05:04:26.686Z,2.10
2023-04-25T05:07:36.143Z,2.43
2023-04-25T05:10:30.410Z,2.23
2023-04-25T05:13:16.639Z,2.07
2023-04-25T05:16:23.668Z,2.40
2023-04-25T05:19:17.914Z,2.27
2023-04-25T05:22:11.986Z,2.30
2023-04-25T05:25:17.031Z,2.33
2023-04-25T05:28:38.940Z,12.10
2023-04-25T05:31:37.000Z,7.33
2023-04-25T05:34:29.945Z,3.77
2023-04-25T05:37:19.243Z,2.70
2023-04-25T05:40:15.373Z,2.63
2023-04-25T05:43:04.525Z,2.63
2023-04-25T05:46:08.581Z,2.47
2023-04-25T05:49:16.892Z,3.00
2023-04-25T05:52:26.184Z,2.40
2023-04-25T05:55:28.101Z,2.63
2023-04-25T05:58:15.540Z,2.20
2023-04-25T06:01:03.708Z,2.10
2023-04-25T06:03:50.826Z,1.93
2023-04-25T06:06:37.870Z,1.97
2023-04-25T06:09:24.045Z,2.07
2023-04-25T06:12:10.338Z,1.90
2023-04-25T06:14:57.070Z,2.03
2023-04-25T06:17:43.701Z,2.07
2023-04-25T06:20:30.282Z,2.13
2023-04-25T06:23:18.912Z,2.60
2023-04-25T06:26:11.341Z,2.70
2023-04-25T06:29:00.371Z,2.67
2023-04-25T06:31:46.502Z,2.53
2023-04-25T06:34:33.268Z,2.57
2023-04-25T06:37:20.013Z,2.70
2023-04-25T06:40:10.273Z,2.50
2023-04-25T06:42:56.639Z,2.40
2023-04-25T06:46:01.988Z,2.50
2023-04-25T06:48:52.175Z,2.20
2023-04-25T06:51:40.031Z,1.97
2023-04-25T06:54:28.095Z,2.03
2023-04-25T06:57:21.617Z,2.27
2023-04-25T07:00:12.155Z,3.17
2023-04-25T07:02:59.089Z,2.10
2023-04-25T07:05:46.907Z,2.67
2023-04-25T07:08:33.285Z,2.43
2023-04-25T07:11:19.749Z,2.10
2023-04-25T07:14:06.154Z,2.50
2023-04-25T07:16:54.604Z,2.00
2023-04-25T07:19:41.530Z,2.13
2023-04-25T07:22:29.184Z,2.30
2023-04-25T07:25:15.583Z,2.37
2023-04-25T07:28:01.736Z,2.43
2023-04-25T07:30:48.598Z,2.27
2023-04-25T07:33:35.688Z,2.70
2023-04-25T07:36:22.543Z,2.57
2023-04-25T07:39:11.877Z,2.90
2023-04-25T07:42:01.462Z,3.10
2023-04-25T07:44:49.551Z,2.93
2023-04-25T07:47:37.134Z,2.70
2023-04-25T07:50:24.031Z,3.57
2023-04-25T07:53:11.154Z,3.07
2023-04-25T07:56:04.962Z,3.20
2023-04-25T07:58:54.782Z,2.83
2023-04-25T08:01:42.376Z,3.33
2023-04-25T08:04:31.048Z,2.60
2023-04-25T08:07:23.913Z,2.80
2023-04-25T08:10:14.510Z,3.40
2023-04-25T08:13:02.271Z,3.20
2023-04-25T08:15:49.656Z,3.37
2023-04-25T08:18:36.280Z,3.23
2023-04-25T08:21:23.167Z,4.00
2023-04-25T08:24:09.743Z,4.50
2023-04-25T08:26:59.870Z,4.70
2023-04-25T08:29:48.545Z,4.30
2023-04-25T08:32:35.566Z,2.77
2023-04-25T08:35:38.714Z,3.37
2023-04-25T08:38:26.045Z,3.00
2023-04-25T08:41:14.371Z,2.90
2023-04-25T08:44:01.934Z,3.00
2023-04-25T08:46:51.120Z,3.33
2023-04-25T08:49:52.226Z,3.20
2023-04-25T08:52:45.543Z,3.47
2023-04-25T08:55:32.712Z,3.73
2023-04-25T08:58:20.584Z,3.43
2023-04-25T09:01:07.484Z,4.23
2023-04-25T09:04:01.589Z,4.30
2023-04-25T09:06:49.173Z,4.37
2023-04-25T09:09:36.624Z,5.40
2023-04-25T09:12:23.706Z,3.77
2023-04-25T09:15:12.758Z,3.23
2023-04-25T09:18:30.576Z,3.97
2023-04-25T09:21:23.450Z,4.43
2023-04-25T09:24:10.539Z,4.30
2023-04-25T09:26:56.919Z,4.00
2023-04-25T09:29:43.592Z,3.97
2023-04-25T09:32:31.751Z,4.07
2023-04-25T09:35:29.149Z,4.13
2023-04-25T09:38:19.660Z,3.20
2023-04-25T09:41:24.987Z,2.90
2023-04-25T09:44:14.046Z,3.10
2023-04-25T09:47:03.391Z,3.93
2023-04-25T09:49:52.988Z,4.17
2023-04-25T09:52:40.736Z,3.47
2023-04-25T09:55:37.348Z,2.93
2023-04-25T09:58:25.578Z,3.90
2023-04-25T10:01:12.092Z,6.17
2023-04-25T10:04:12.228Z,5.13
2023-04-25T10:07:10.607Z,4.30
2023-04-25T10:10:04.001Z,4.17
2023-04-25T10:12:50.557Z,4.90
2023-04-25T10:15:40.444Z,5.83
2023-04-25T10:18:28.481Z,8.53
2023-04-25T10:21:17.122Z,8.70
2023-04-25T10:24:04.146Z,5.40
2023-04-25T10:26:51.699Z,4.23
2023-04-25T10:29:38.677Z,7.40
2023-04-25T10:32:25.111Z,4.67
2023-04-25T10:35:17.007Z,4.97
2023-04-25T10:38:10.570Z,4.57
2023-04-25T10:41:09.805Z,4.50
2023-04-25T10:44:05.387Z,4.30
2023-04-25T10:46:52.141Z,4.40
2023-04-25T10:49:43.235Z,4.37
2023-04-25T10:52:30.680Z,4.90
2023-04-25T10:55:17.091Z,3.63
2023-04-25T10:58:03.511Z,3.53
2023-04-25T11:03:44.884Z,3.20
2023-04-25T11:06:43.201Z,3.33
2023-04-25T11:09:30.963Z,2.60
2023-04-25T11:12:18.547Z,2.40
2023-04-25T11:15:08.925Z,2.73
2023-04-25T11:17:56.110Z,2.43
2023-04-25T11:20:44.394Z,2.20
2023-04-25T11:23:31.463Z,1.93
2023-04-25T11:26:17.864Z,2.17
2023-04-25T11:29:04.504Z,2.33
2023-04-25T11:31:51.758Z,1.90
2023-04-25T11:34:38.260Z,2.17
2023-04-25T11:37:24.597Z,2.20
2023-04-25T11:40:12.700Z,2.40
2023-04-25T11:43:01.720Z,2.80
2023-04-25T11:45:52.089Z,3.03
2023-04-25T11:48:43.431Z,3.60
2023-04-25T11:51:29.660Z,3.57
2023-04-25T11:54:16.468Z,3.33
2023-04-25T11:57:02.640Z,4.17
2023-04-25T11:59:48.860Z,3.00
2023-04-25T12:02:41.826Z,3.80
2023-04-25T12:05:33.565Z,2.83
2023-04-25T12:08:20.364Z,5.27
2023-04-25T12:11:06.718Z,3.57
2023-04-25T12:13:54.803Z,3.23
2023-04-25T12:16:46.160Z,3.17
2023-04-25T12:19:38.230Z,3.10
2023-04-25T12:22:25.644Z,3.37
2023-04-25T12:25:35.012Z,3.43
2023-04-25T12:28:24.902Z,3.43
2023-04-25T12:31:11.285Z,3.20
2023-04-25T12:33:58.063Z,4.10
2023-04-25T12:36:44.636Z,4.50
2023-04-25T12:39:30.833Z,4.13
2023-04-25T12:42:17.076Z,4.40
2023-04-25T12:45:03.743Z,4.93
2023-04-25T12:47:49.895Z,4.40
2023-04-25T12:50:36.510Z,4.80
2023-04-25T12:53:25.103Z,5.40
2023-04-25T12:56:12.111Z,4.43
2023-04-25T12:58:58.804Z,5.03
2023-04-25T13:01:46.397Z,4.37
2023-04-25T13:04:33.265Z,3.70
2023-04-25T13:07:19.405Z,4.57
2023-04-25T13:10:06.792Z,6.53
2023-04-25T13:12:53.056Z,5.27
2023-04-25T13:15:39.541Z,5.63
2023-04-25T13:18:27.457Z,7.07
2023-04-25T13:21:14.346Z,4.00
2023-04-25T13:24:01.197Z,4.53
2023-04-25T13:26:47.839Z,3.53
2023-04-25T13:29:36.406Z,4.00
2023-04-25T13:32:22.551Z,5.53
2023-04-25T13:35:12.599Z,3.40
2023-04-25T13:37:58.811Z,3.90
2023-04-25T13:40:45.326Z,4.53
2023-04-25T13:43:33.072Z,3.57
2023-04-25T13:46:40.954Z,3.87
2023-04-25T13:49:26.239Z,4.00
2023-04-25T13:52:12.761Z,3.57
2023-04-25T13:54:59.587Z,3.87
2023-04-25T13:57:46.583Z,3.50
2023-04-25T14:00:32.979Z,6.40
2023-04-25T14:03:19.203Z,2.90
2023-04-25T14:06:05.669Z,3.37
2023-04-25T14:08:51.761Z,3.40
2023-04-25T14:11:37.992Z,3.40
2023-04-25T14:14:25.209Z,3.20
2023-04-25T14:17:11.876Z,3.50
2023-04-25T14:19:58.555Z,3.20
2023-04-25T14:22:45.072Z,3.57
2023-04-25T14:25:31.272Z,3.40
2023-04-25T14:28:17.752Z,4.20
2023-04-25T14:31:04.406Z,3.47
2023-04-25T14:33:51.407Z,3.87
2023-04-25T14:36:38.072Z,3.60
2023-04-25T14:39:24.330Z,3.70
2023-04-25T14:42:12.079Z,3.50
2023-04-25T14:44:58.585Z,3.37
2023-04-25T14:47:44.930Z,3.77
2023-04-25T14:50:31.742Z,3.90
2023-04-25T14:53:18.391Z,3.80
2023-04-25T14:56:05.598Z,3.30
2023-04-25T14:58:52.249Z,3.47
2023-04-25T15:01:38.786Z,3.37
2023-04-25T15:04:25.241Z,3.43
2023-04-25T15:07:12.112Z,3.40
2023-04-25T15:09:58.356Z,3.67
2023-04-25T15:12:46.976Z,3.57
2023-04-25T15:15:34.286Z,3.67
2023-04-25T15:18:24.814Z,3.63
2023-04-25T15:21:11.113Z,3.77
2023-04-25T15:23:57.531Z,3.13
2023-04-25T15:26:43.928Z,3.60
2023-04-25T15:29:30.931Z,3.73
2023-04-25T15:32:17.541Z,3.43
2023-04-25T15:35:06.858Z,3.80
2023-04-25T15:37:53.093Z,3.73
2023-04-25T15:40:39.379Z,3.40
2023-04-25T15:43:26.374Z,3.40
2023-04-25T15:46:12.870Z,3.30
2023-04-25T15:48:59.360Z,3.40
2023-04-25T15:51:45.714Z,3.27
2023-04-25T15:54:31.909Z,3.60
2023-04-25T15:57:18.520Z,3.00
2023-04-25T16:00:10.957Z,3.10
2023-04-25T16:02:58.118Z,3.30
2023-04-25T16:05:44.606Z,3.17
2023-04-25T16:08:34.247Z,3.70
2023-04-25T16:11:20.750Z,4.67
2023-04-25T16:14:07.158Z,4.60
2023-04-25T16:16:53.862Z,3.30
2023-04-25T16:19:40.701Z,3.40
2023-04-25T16:22:26.926Z,3.60
2023-04-25T16:25:13.546Z,5.40
2023-04-25T16:28:00.231Z,3.63
2023-04-25T16:30:46.597Z,3.67
2023-04-25T16:33:34.199Z,3.60
2023-04-25T16:36:20.490Z,3.60
2023-04-25T16:39:08.376Z,3.73
2023-04-25T16:41:54.892Z,3.50
2023-04-25T16:44:41.277Z,3.23
2023-04-25T16:47:27.532Z,3.57
2023-04-25T16:50:15.186Z,3.37
2023-04-25T16:53:01.749Z,3.57
2023-04-25T16:55:48.006Z,7.80
2023-04-25T16:58:35.547Z,5.03
2023-04-25T17:01:22.587Z,9.63
2023-04-25T17:04:09.280Z,9.07
2023-04-25T17:06:55.529Z,3.70
2023-04-25T17:09:41.838Z,3.07
2023-04-25T17:12:28.291Z,4.20
2023-04-25T17:15:14.666Z,5.50
2023-04-25T17:18:01.006Z,3.27
2023-04-25T17:20:47.486Z,4.43
2023-04-25T17:23:34.405Z,3.27
2023-04-25T17:26:21.158Z,4.30
2023-04-25T17:29:08.171Z,3.77
2023-04-25T17:31:56.940Z,3.20
2023-04-25T17:34:43.568Z,4.93
2023-04-25T17:37:30.123Z,4.53
2023-04-25T17:40:16.776Z,4.10
2023-04-25T17:43:03.287Z,5.10
2023-04-25T17:45:49.939Z,5.03
2023-04-25T17:48:36.149Z,7.00
2023-04-25T17:51:22.642Z,5.27
2023-04-25T17:54:09.328Z,4.50
2023-04-25T17:56:56.389Z,4.10
2023-04-25T17:59:43.059Z,4.43
2023-04-25T18:02:29.572Z,4.87
2023-04-25T18:05:16.554Z,4.40
2023-04-25T18:08:03.103Z,5.97
2023-04-25T18:15:16.687Z,3.70
2023-04-25T18:18:09.554Z,4.50
2023-04-25T18:20:56.075Z,5.20
2023-04-25T18:23:42.395Z,4.87
2023-04-25T18:26:30.179Z,5.00
2023-04-25T18:29:31.427Z,5.13
2023-04-25T18:32:18.976Z,4.50
2023-04-25T18:38:01.566Z,5.03
2023-04-25T18:40:59.097Z,4.97
2023-04-25T18:43:53.462Z,4.83
2023-04-25T18:46:43.471Z,4.53
2023-04-25T18:49:29.938Z,5.03
2023-04-25T18:52:16.663Z,5.73
2023-04-25T18:55:03.567Z,6.33
2023-04-25T18:57:49.846Z,5.50
2023-04-25T19:00:37.259Z,4.80
2023-04-25T19:03:24.273Z,5.40
2023-04-25T19:06:11.041Z,4.20
2023-04-25T19:08:57.746Z,4.70
2023-04-25T19:11:44.524Z,4.50
2023-04-25T19:14:32.327Z,4.30
2023-04-25T19:17:18.631Z,5.57
2023-04-25T19:20:06.902Z,4.03
2023-04-25T19:22:53.262Z,4.83
2023-04-25T19:25:39.574Z,4.37
2023-04-25T19:28:26.457Z,4.97
2023-04-25T19:31:13.109Z,5.30
2023-04-25T19:33:59.473Z,5.50
2023-04-25T19:36:45.880Z,4.70
2023-04-25T19:39:32.444Z,5.57
2023-04-25T19:42:19.665Z,4.77
2023-04-25T19:45:07.682Z,5.30
2023-04-25T19:47:53.950Z,4.40
2023-04-25T19:50:41.697Z,4.33
2023-04-25T19:53:28.317Z,5.53
2023-04-25T19:56:14.820Z,4.63
2023-04-25T19:59:01.072Z,4.63
2023-04-25T20:01:47.513Z,5.20
2023-04-25T20:04:33.937Z,4.97
2023-04-25T20:07:22.617Z,5.20
2023-04-25T20:10:12.595Z,6.93
2023-04-25T20:12:59.140Z,5.27
2023-04-25T20:15:45.931Z,4.80
2023-04-25T20:18:32.027Z,5.40
2023-04-25T20:21:19.266Z,4.73
2023-04-25T20:24:05.693Z,6.60
2023-04-25T20:26:52.213Z,5.37
2023-04-25T20:29:38.392Z,5.17
2023-04-25T20:32:24.930Z,5.47
2023-04-25T20:35:11.343Z,4.63
2023-04-25T20:37:57.534Z,5.63
2023-04-25T20:40:43.834Z,4.77
2023-04-25T20:43:31.252Z,5.77
2023-04-25T20:46:18.069Z,5.60
2023-04-25T20:49:05.248Z,6.37
2023-04-25T20:51:52.763Z,6.07
2023-04-25T20:54:39.425Z,5.23
2023-04-25T20:57:25.998Z,5.83
2023-04-25T21:00:18.830Z,5.50
2023-04-25T21:03:06.032Z,5.43
2023-04-25T21:05:52.268Z,5.27
2023-04-25T21:08:38.789Z,5.83
2023-04-25T21:11:25.321Z,6.03
2023-04-25T21:14:11.763Z,5.40
2023-04-25T21:16:57.944Z,5.63
2023-04-25T21:19:44.508Z,6.13
2023-04-25T21:22:30.973Z,5.10
2023-04-25T21:25:23.920Z,5.40
2023-04-25T21:28:10.156Z,5.63
2023-04-25T21:30:56.450Z,6.47
2023-04-25T21:33:43.112Z,6.00
2023-04-25T21:36:29.312Z,5.63
2023-04-25T21:39:15.680Z,5.40
2023-04-25T21:42:03.069Z,5.80
2023-04-25T21:44:49.512Z,5.63
2023-04-25T21:47:36.348Z,6.40
2023-04-25T21:50:22.896Z,5.03
2023-04-25T21:53:10.882Z,6.37
2023-04-25T21:55:57.265Z,5.73
2023-04-25T21:58:43.705Z,5.10
2023-04-25T22:01:30.030Z,5.00
2023-04-25T22:04:16.803Z,4.93
2023-04-25T22:07:03.635Z,4.90
2023-04-25T22:09:54.938Z,5.43
2023-04-25T22:12:41.484Z,5.50
2023-04-25T22:15:29.432Z,5.87
2023-04-25T22:18:16.334Z,5.60
2023-04-25T22:21:02.719Z,5.07
2023-04-25T22:23:50.704Z,5.67
2023-04-25T22:26:37.314Z,5.03
2023-04-25T22:29:24.180Z,5.57
2023-04-25T22:32:10.296Z,5.60
2023-04-25T22:34:56.551Z,5.77
2023-04-25T22:37:42.904Z,5.40
2023-04-25T22:40:29.238Z,5.43
2023-04-25T22:43:15.868Z,5.60
2023-04-25T22:46:03.334Z,6.00
2023-04-25T22:48:49.841Z,6.13
2023-04-25T22:51:36.982Z,5.47
2023-04-25T22:54:23.924Z,5.60
2023-04-25T22:57:10.573Z,6.33
2023-04-25T22:59:57.924Z,5.27
2023-04-25T23:02:45.980Z,5.50
2023-04-25T23:05:33.235Z,5.23
2023-04-25T23:08:19.430Z,5.13
2023-04-25T23:11:07.717Z,5.80
2023-04-25T23:13:53.983Z,6.00
2023-04-25T23:16:40.772Z,5.93
2023-04-25T23:19:27.525Z,5.13
2023-04-25T23:22:14.298Z,5.50
2023-04-25T23:25:01.004Z,6.80
2023-04-25T23:27:47.729Z,5.53
2023-04-25T23:30:34.399Z,5.87
2023-04-25T23:33:20.631Z,6.27
2023-04-25T23:36:07.634Z,6.97
2023-04-25T23:38:55.807Z,6.63
2023-04-25T23:41:42.003Z,6.73
2023-04-25T23:44:28.462Z,6.70
2023-04-25T23:47:17.504Z,5.83
2023-04-25T23:50:04.410Z,8.00
2023-04-25T23:52:51.144Z,6.17
2023-04-25T23:55:37.892Z,5.57
2023-04-25T23:58:24.469Z,5.87
